Rocky Grove, Pennsylvania
Current Conditions -  °F | °C
As of 10:35 AM on Friday 24 Oct 2014 (Local Time) from KFKL Reporting Station
Overcast Overcast  
Wind Chill: 41°   Ceiling: 200
Heat Index: 45°   Visibility: 0.5mi
Dew Point: 41°   Wind: 6mph
Humidity: 87%   Direction: 260°W
Pressure: 30.1"   Gusts: NA
Location:  41.4663°N, 79.8305°W
Report Text: KFKL 241435Z 26005KT 1/2SM OVC002 07/05 A3010 RMK AO1
Loading
Personal Weather Stations






























Interactive Weather Map
Tropical Storm Tracking
New forecast layout! Learn more

10-Day Weather Forecast

Advertisements
Track Severe Weather on mobile